createdAt,value
2017-08-10T00:00:18.053Z,64.5
2017-08-10T00:01:28.023Z,64.31
2017-08-10T00:02:37.996Z,64.12
2017-08-10T00:03:48.203Z,63.82
2017-08-10T00:04:58.171Z,63.64
2017-08-10T00:06:08.441Z,64.02
2017-08-10T00:07:18.732Z,64.21
2017-08-10T00:08:29.009Z,63.92
2017-08-10T00:09:39.238Z,64.21
2017-08-10T00:10:49.514Z,64.21
2017-08-10T00:11:59.810Z,64.4
2017-08-10T00:13:09.780Z,64.02
2017-08-10T00:14:20.052Z,64.12
2017-08-10T00:15:30.270Z,64.31
2017-08-10T00:16:40.537Z,64.12
2017-08-10T00:17:50.818Z,64.12
2017-08-10T00:19:00.803Z,64.21
2017-08-10T00:20:11.095Z,64.12
2017-08-10T00:21:21.320Z,64.31
2017-08-10T00:22:31.280Z,64.31
2017-08-10T00:23:41.568Z,64.31
2017-08-10T00:24:51.230Z,64.4
2017-08-10T00:26:01.206Z,64.59
2017-08-10T00:27:11.747Z,64.4
2017-08-10T00:28:21.742Z,64.69
2017-08-10T00:29:31.709Z,64.89
2017-08-10T00:30:41.993Z,64.89
2017-08-10T00:31:52.285Z,64.79
2017-08-10T00:33:02.820Z,64.79
2017-08-10T00:34:13.084Z,65.56
2017-08-10T00:35:23.051Z,65.66
2017-08-10T00:36:33.034Z,65.27
2017-08-10T00:37:43.318Z,65.66
2017-08-10T00:38:53.833Z,65.46
2017-08-10T00:40:04.121Z,65.56
2017-08-10T00:41:14.091Z,65.94
2017-08-10T00:42:24.386Z,65.66
2017-08-10T00:43:34.678Z,66.33
2017-08-10T00:44:45.232Z,66.14
2017-08-10T00:45:54.890Z,66.24
2017-08-10T00:47:04.860Z,66.58
2017-08-10T00:48:15.135Z,65.81
2017-08-10T00:49:25.112Z,66.49
2017-08-10T00:50:35.635Z,65.91
2017-08-10T00:51:45.903Z,66.39
2017-08-10T00:52:55.888Z,66.58
2017-08-10T00:54:06.169Z,66.68
2017-08-10T00:55:16.120Z,66.78
2017-08-10T00:56:26.348Z,66.78
2017-08-10T00:57:36.639Z,66.58
2017-08-10T00:58:46.918Z,66.78
2017-08-10T00:59:56.893Z,66.68
2017-08-10T01:01:07.172Z,66.1
2017-08-10T01:02:17.390Z,65.85
2017-08-10T01:03:27.666Z,66.62
2017-08-10T01:04:37.942Z,66.42
2017-08-10T01:05:47.914Z,66.42
2017-08-10T01:06:58.195Z,66.52
2017-08-10T01:08:08.730Z,66.3
2017-08-10T01:09:19.024Z,66.39
2017-08-10T01:10:28.995Z,66.33
2017-08-10T01:11:38.977Z,66.52
2017-08-10T01:12:48.960Z,66.33
2017-08-10T01:13:59.490Z,65.94
2017-08-10T01:15:09.771Z,66.52
2017-08-10T01:16:20.058Z,66.04
2017-08-10T01:17:30.016Z,65.94
2017-08-10T01:18:40.309Z,66.04
2017-08-10T01:19:50.537Z,65.94
2017-08-10T01:21:00.801Z,66.62
2017-08-10T01:22:10.772Z,67
2017-08-10T01:23:21.050Z,67.87
2017-08-10T01:24:31.022Z,68.26
2017-08-10T01:25:41.233Z,71.14
2017-08-10T01:26:51.513Z,71.91
2017-08-10T01:28:01.806Z,70.76
2017-08-10T01:29:11.771Z,71.81
2017-08-10T01:30:22.048Z,72.17
2017-08-10T01:31:32.330Z,73.8
2017-08-10T01:32:42.600Z,73.9
2017-08-10T01:33:52.566Z,75.92
2017-08-10T01:35:02.849Z,74.96
2017-08-10T01:36:13.117Z,77.08
2017-08-10T01:37:23.651Z,79.05
2017-08-10T01:38:33.335Z,79.25
2017-08-10T01:39:43.303Z,79.82
2017-08-10T01:40:53.581Z,80.75
2017-08-10T01:42:03.850Z,80.84
2017-08-10T01:43:14.386Z,80.84
2017-08-10T01:44:24.364Z,81.99
2017-08-10T01:45:34.648Z,83.87
2017-08-10T01:46:44.941Z,85.03
2017-08-10T01:47:55.227Z,85.51
2017-08-10T01:49:05.766Z,90.22
2017-08-10T01:50:16.038Z,93.05
2017-08-10T01:51:26.311Z,90.08
2017-08-10T01:52:35.979Z,90.66
2017-08-10T01:53:46.259Z,91.42
2017-08-10T01:54:56.477Z,95.5
2017-08-10T01:56:06.770Z,97.04
2017-08-10T01:57:16.743Z,99.78
2017-08-10T01:58:27.028Z,99.99
2017-08-10T01:59:37.317Z,99.99
2017-08-10T02:00:47.856Z,96.18
2017-08-10T02:01:58.130Z,96.56
2017-08-10T02:03:08.099Z,97.42
2017-08-10T02:04:18.385Z,98.86
2017-08-10T02:05:28.661Z,99.99
2017-08-10T02:06:38.576Z,97.09
2017-08-10T02:07:48.864Z,99.87
2017-08-10T02:08:58.834Z,99.99
2017-08-10T02:10:09.124Z,99.99
2017-08-10T02:11:18.761Z,99.99
2017-08-10T02:12:29.294Z,99.99
2017-08-10T02:13:39.570Z,99.99
2017-08-10T02:14:49.845Z,99.99
2017-08-10T02:16:00.131Z,99.99
2017-08-10T02:17:10.404Z,99.99
2017-08-10T02:18:20.991Z,99.99
2017-08-10T02:19:30.976Z,99.99
2017-08-10T02:20:40.931Z,99.99
2017-08-10T02:21:51.212Z,98.19
2017-08-10T02:23:01.165Z,89.85
2017-08-10T02:24:11.451Z,84.61
2017-08-10T02:25:21.725Z,81.16
2017-08-10T02:26:31.713Z,79.44
2017-08-10T02:27:41.988Z,78.77
2017-08-10T02:28:52.268Z,78.57
2017-08-10T02:30:02.818Z,77.71
2017-08-10T02:31:13.109Z,77.42
2017-08-10T02:32:23.384Z,77.71
2017-08-10T02:33:33.670Z,78.77
2017-08-10T02:34:43.969Z,80.87
2017-08-10T02:35:53.916Z,81.7
2017-08-10T02:37:04.196Z,81.6
2017-08-10T02:38:14.494Z,81.51
2017-08-10T02:39:24.464Z,79.97
2017-08-10T02:40:34.440Z,78.92
2017-08-10T02:41:44.953Z,73.83
2017-08-10T02:42:54.925Z,72.39
2017-08-10T02:44:04.890Z,72.78
2017-08-10T02:45:15.188Z,72.68
2017-08-10T02:46:24.842Z,73.74
2017-08-10T02:47:35.078Z,75.18
2017-08-10T02:48:45.360Z,76.67
2017-08-10T02:49:55.322Z,83.09
2017-08-10T02:51:05.609Z,89.61
2017-08-10T02:52:15.889Z,92.3
2017-08-10T02:53:26.472Z,95.46
2017-08-10T02:54:36.740Z,95.46
2017-08-10T02:55:47.009Z,95.26
2017-08-10T02:56:57.279Z,95.46
2017-08-10T02:58:07.558Z,95.26
2017-08-10T02:59:18.095Z,96.03
2017-08-10T03:00:28.400Z,95.98
2017-08-10T03:01:38.371Z,96.84
2017-08-10T03:02:48.638Z,97.23
2017-08-10T03:03:58.929Z,98
2017-08-10T03:05:09.480Z,97.23
2017-08-10T03:06:19.435Z,97.61
2017-08-10T03:07:29.714Z,97.14
2017-08-10T03:08:39.973Z,97.9
2017-08-10T03:09:49.627Z,98
2017-08-10T03:11:00.175Z,98.1
2017-08-10T03:12:10.439Z,98
2017-08-10T03:13:20.418Z,98
2017-08-10T03:14:30.704Z,98.19
2017-08-10T03:15:40.979Z,98.1
2017-08-10T03:16:51.496Z,97.9
2017-08-10T03:18:01.787Z,97.9
2017-08-10T03:19:12.074Z,97.9
2017-08-10T03:20:22.341Z,98.76
2017-08-10T03:21:32.637Z,98
2017-08-10T03:22:43.155Z,98.76
2017-08-10T03:23:53.449Z,98.86
2017-08-10T03:25:03.729Z,98.96
2017-08-10T03:26:14.009Z,98.57
2017-08-10T03:27:24.296Z,98.76
2017-08-10T03:28:34.830Z,98.76
2017-08-10T03:29:45.114Z,98.96
2017-08-10T03:30:55.412Z,98.57
2017-08-10T03:32:05.690Z,98.86
2017-08-10T03:33:15.664Z,98.76
2017-08-10T03:34:25.882Z,98.86
2017-08-10T03:35:36.152Z,98.67
2017-08-10T03:36:46.433Z,98.86
2017-08-10T03:37:56.411Z,98.76
2017-08-10T03:39:06.686Z,98.86
2017-08-10T03:40:17.215Z,99.34
2017-08-10T03:41:27.501Z,98.96
2017-08-10T03:42:37.481Z,98.86
2017-08-10T03:43:47.752Z,99.24
2017-08-10T03:44:58.016Z,98.96
2017-08-10T03:46:08.547Z,99.15
2017-08-10T03:47:18.215Z,98.96
2017-08-10T03:48:28.182Z,99.43
2017-08-10T03:49:37.822Z,99.53
2017-08-10T03:50:48.113Z,99.15
2017-08-10T03:51:58.641Z,99.63
2017-08-10T03:53:08.612Z,99.99
2017-08-10T03:54:18.297Z,99.63
2017-08-10T03:55:28.264Z,99.82
2017-08-10T03:56:38.236Z,99.99
2017-08-10T03:57:48.436Z,99.99
2017-08-10T03:58:58.700Z,99.87
2017-08-10T04:00:08.979Z,99.99
2017-08-10T04:01:18.950Z,99.99
2017-08-10T04:02:28.934Z,99.99
2017-08-10T04:03:39.470Z,99.99
2017-08-10T04:04:49.755Z,99.99
2017-08-10T04:06:00.033Z,99.99
2017-08-10T04:07:10.334Z,99.99
2017-08-10T04:08:20.633Z,99.99
2017-08-10T04:09:30.835Z,99.99
2017-08-10T04:10:41.109Z,99.99
2017-08-10T04:11:50.442Z,99.99
2017-08-10T04:13:00.716Z,99.99
2017-08-10T04:14:10.985Z,99.99
2017-08-10T04:15:21.195Z,99.99
2017-08-10T04:16:31.469Z,99.99
2017-08-10T04:17:41.433Z,99.99
2017-08-10T04:18:51.710Z,99.99
2017-08-10T04:20:02.002Z,99.99
2017-08-10T04:21:11.617Z,99.99
2017-08-10T04:22:21.889Z,99.99
2017-08-10T04:23:32.164Z,99.99
2017-08-10T04:24:42.442Z,99.99
2017-08-10T04:25:52.732Z,99.99
2017-08-10T04:27:03.258Z,99.99
2017-08-10T04:28:13.533Z,99.99
2017-08-10T04:29:23.187Z,99.99
2017-08-10T04:30:33.155Z,99.99
2017-08-10T04:31:43.439Z,99.99
2017-08-10T04:32:53.678Z,99.99
2017-08-10T04:34:03.968Z,99.99
2017-08-10T04:35:14.256Z,99.99
2017-08-10T04:36:24.540Z,99.99
2017-08-10T04:37:34.824Z,99.99
2017-08-10T04:38:45.349Z,99.99
2017-08-10T04:39:55.327Z,99.99
2017-08-10T04:41:05.301Z,99.99
2017-08-10T04:42:15.587Z,99.99
2017-08-10T04:43:25.562Z,99.99
2017-08-10T04:44:36.102Z,99.99
2017-08-10T04:45:46.062Z,99.99
2017-08-10T04:46:56.360Z,99.99
2017-08-10T04:48:06.329Z,99.99
2017-08-10T04:49:16.309Z,99.99
2017-08-10T04:50:26.536Z,99.99
2017-08-10T04:51:36.806Z,99.99
2017-08-10T04:52:46.777Z,99.99
2017-08-10T04:53:57.037Z,99.99
2017-08-10T04:55:07.314Z,99.99
2017-08-10T04:56:17.620Z,99.99
2017-08-10T04:57:27.584Z,99.99
2017-08-10T04:58:37.865Z,99.99
2017-08-10T04:59:47.830Z,99.99
2017-08-10T05:00:57.813Z,99.99
2017-08-10T05:02:08.032Z,99.99
2017-08-10T05:03:18.009Z,99.99
2017-08-10T05:04:27.971Z,99.99
2017-08-10T05:05:37.932Z,99.99
2017-08-10T05:06:48.212Z,99.99
2017-08-10T05:07:58.450Z,99.99
2017-08-10T05:09:08.729Z,99.99
2017-08-10T05:10:19.025Z,99.99
2017-08-10T05:11:29.031Z,99.99
2017-08-10T05:12:38.985Z,99.99
2017-08-10T05:13:49.221Z,99.99
2017-08-10T05:14:59.515Z,99.99
2017-08-10T05:16:09.806Z,99.99
2017-08-10T05:17:20.095Z,99.99
2017-08-10T05:18:30.394Z,99.99
2017-08-10T05:19:40.915Z,99.99
2017-08-10T05:20:50.899Z,99.99
2017-08-10T05:22:01.208Z,99.99
2017-08-10T05:23:11.486Z,99.99
2017-08-10T05:24:21.765Z,99.99
2017-08-10T05:25:31.987Z,99.99
2017-08-10T05:26:41.961Z,99.99
2017-08-10T05:27:51.932Z,99.99
2017-08-10T05:29:01.915Z,99.99
2017-08-10T05:30:12.185Z,99.99
2017-08-10T05:31:22.775Z,99.99
2017-08-10T05:32:32.436Z,99.99
2017-08-10T05:33:42.722Z,99.99
2017-08-10T05:34:52.696Z,99.99
2017-08-10T05:36:02.664Z,99.99
2017-08-10T05:37:12.881Z,99.99
2017-08-10T05:38:23.152Z,99.99
2017-08-10T05:39:33.112Z,99.99
2017-08-10T05:40:43.069Z,99.99
2017-08-10T05:41:53.047Z,99.99
2017-08-10T05:43:03.269Z,99.99
2017-08-10T05:44:13.236Z,99.99
2017-08-10T05:45:23.517Z,99.99
2017-08-10T05:46:33.815Z,99.99
2017-08-10T05:47:44.102Z,99.99
2017-08-10T05:48:54.306Z,99.99
2017-08-10T05:50:04.274Z,99.99
2017-08-10T05:51:14.554Z,99.99
2017-08-10T05:52:24.515Z,99.99
2017-08-10T05:53:34.789Z,99.99
2017-08-10T05:54:45.047Z,99.99
2017-08-10T05:55:55.335Z,99.99
2017-08-10T05:57:05.638Z,99.99
2017-08-10T05:58:15.617Z,99.99
2017-08-10T05:59:26.200Z,99.99
2017-08-10T06:00:36.727Z,99.99
2017-08-10T06:01:46.997Z,99.99
2017-08-10T06:02:56.963Z,99.99
2017-08-10T06:04:07.247Z,99.99
2017-08-10T06:05:17.798Z,99.99
2017-08-10T06:06:28.342Z,99.99
2017-08-10T06:07:38.005Z,99.99
2017-08-10T06:08:47.973Z,99.99
2017-08-10T06:09:58.257Z,99.99
2017-08-10T06:11:08.248Z,99.99
2017-08-10T06:12:18.476Z,99.99
2017-08-10T06:13:28.770Z,99.99
2017-08-10T06:14:39.047Z,99.99
2017-08-10T06:15:49.351Z,99.99
2017-08-10T06:16:59.629Z,99.99
2017-08-10T06:18:10.155Z,99.99
2017-08-10T06:19:20.440Z,99.99
2017-08-10T06:20:30.720Z,99.99
2017-08-10T06:21:41.011Z,99.99
2017-08-10T06:22:50.988Z,99.99
2017-08-10T06:24:01.509Z,99.99
2017-08-10T06:25:11.790Z,99.99
2017-08-10T06:26:21.750Z,99.99
2017-08-10T06:27:32.027Z,99.99
2017-08-10T06:28:42.005Z,99.99
2017-08-10T06:29:52.520Z,99.99
2017-08-10T06:31:02.500Z,99.99
2017-08-10T06:32:12.768Z,99.99
2017-08-10T06:33:23.054Z,99.99
2017-08-10T06:34:33.352Z,99.99
2017-08-10T06:35:43.893Z,99.99
2017-08-10T06:36:54.179Z,99.99
2017-08-10T06:38:04.466Z,99.99
2017-08-10T06:39:14.762Z,99.99
2017-08-10T06:40:25.060Z,99.99
2017-08-10T06:41:35.602Z,99.99
2017-08-10T06:42:45.880Z,99.99
2017-08-10T06:43:56.180Z,99.99
2017-08-10T06:45:06.465Z,99.99
2017-08-10T06:46:16.732Z,99.99
2017-08-10T06:47:26.336Z,99.99
2017-08-10T06:48:36.313Z,99.99
2017-08-10T06:49:46.585Z,99.99
2017-08-10T06:50:56.745Z,99.99
2017-08-10T06:52:07.009Z,99.99
2017-08-10T06:53:17.249Z,99.99
2017-08-10T06:54:27.218Z,99.49
2017-08-10T06:55:37.512Z,99.99
2017-08-10T06:56:47.783Z,99.49
2017-08-10T06:57:57.746Z,99.49
2017-08-10T06:59:08.287Z,97.96
2017-08-10T07:00:18.264Z,97.38
2017-08-10T07:01:28.219Z,96.03
2017-08-10T07:02:38.497Z,96.51
2017-08-10T07:03:48.774Z,97.38
2017-08-10T07:04:59.316Z,95.45
2017-08-10T07:06:09.601Z,95.26
2017-08-10T07:07:19.879Z,95.75
2017-08-10T07:08:29.880Z,95.36
2017-08-10T07:09:39.859Z,97.09
2017-08-10T07:10:50.397Z,94.68
2017-08-10T07:12:00.693Z,96.17
2017-08-10T07:13:10.667Z,96.75
2017-08-10T07:14:20.635Z,96.94
2017-08-10T07:15:30.304Z,95.79
2017-08-10T07:16:40.559Z,94.45
2017-08-10T07:17:50.854Z,95.7
2017-08-10T07:19:01.114Z,93.38
2017-08-10T07:20:11.391Z,93.29
2017-08-10T07:21:21.377Z,92.33
2017-08-10T07:22:31.925Z,94.15
2017-08-10T07:23:41.904Z,93.58
2017-08-10T07:24:51.572Z,94.73
2017-08-10T07:26:00.913Z,95.79
2017-08-10T07:27:10.579Z,93.48
2017-08-10T07:28:21.119Z,94.06
2017-08-10T07:29:31.084Z,94.54
2017-08-10T07:30:41.365Z,94.15
2017-08-10T07:31:51.644Z,91.85
2017-08-10T07:33:01.916Z,92.13
2017-08-10T07:34:12.472Z,90.59
2017-08-10T07:35:22.755Z,90.64
2017-08-10T07:36:33.046Z,90.64
2017-08-10T07:37:43.320Z,90.83
2017-08-10T07:38:53.600Z,89.39
2017-08-10T07:40:04.146Z,90.45
2017-08-10T07:41:14.421Z,90.35
2017-08-10T07:42:24.079Z,87.9
2017-08-10T07:43:33.732Z,89.63
2017-08-10T07:44:44.002Z,87.99
2017-08-10T07:45:54.534Z,88.28
2017-08-10T07:47:04.813Z,87.8
2017-08-10T07:48:14.780Z,86.74
2017-08-10T07:49:25.061Z,87.6
2017-08-10T07:50:35.333Z,87.99
2017-08-10T07:51:45.566Z,88.76
2017-08-10T07:52:55.551Z,88.28
2017-08-10T07:54:05.847Z,86.93
2017-08-10T07:55:16.124Z,87.17
2017-08-10T07:56:26.397Z,88.38
2017-08-10T07:57:36.940Z,87.46
2017-08-10T07:58:47.217Z,86.78
2017-08-10T07:59:57.191Z,86.3
2017-08-10T08:01:07.484Z,85.05
2017-08-10T08:02:17.790Z,84.86
2017-08-10T08:03:28.327Z,85.14
2017-08-10T08:04:38.305Z,85.53
2017-08-10T08:05:48.283Z,86.21
2017-08-10T08:06:58.559Z,86.49
2017-08-10T08:08:08.872Z,86.11
2017-08-10T08:09:19.443Z,85.43
2017-08-10T08:10:29.133Z,86.11
2017-08-10T08:11:39.119Z,86.59
2017-08-10T08:12:49.399Z,85.53
2017-08-10T08:13:59.685Z,84.86
2017-08-10T08:15:10.293Z,84.66
2017-08-10T08:16:20.263Z,84.86
2017-08-10T08:17:30.562Z,84.8
2017-08-10T08:18:40.553Z,84.8
2017-08-10T08:19:50.556Z,84.32
2017-08-10T08:21:01.079Z,84.94
2017-08-10T08:22:11.371Z,83.3
2017-08-10T08:23:21.667Z,83.59
2017-08-10T08:24:31.650Z,81.41
2017-08-10T08:25:41.931Z,80.64
2017-08-10T08:26:52.170Z,81.7
2017-08-10T08:28:02.453Z,81.51
2017-08-10T08:29:12.734Z,79.49
2017-08-10T08:30:22.726Z,80.35
2017-08-10T08:31:33.011Z,81.12
2017-08-10T08:32:43.573Z,80.26
2017-08-10T08:33:53.857Z,80.35
2017-08-10T08:35:04.155Z,80.35
2017-08-10T08:36:14.463Z,80.35
2017-08-10T08:37:24.752Z,81.51
2017-08-10T08:38:35.344Z,83.25
2017-08-10T08:39:45.641Z,83.09
2017-08-10T08:40:55.599Z,80.3
2017-08-10T08:42:05.902Z,77.69
2017-08-10T08:43:15.880Z,78.31
2017-08-10T08:44:26.417Z,80.24
2017-08-10T08:45:36.108Z,79.66
2017-08-10T08:46:46.081Z,76.22
2017-08-10T08:47:56.052Z,75.74
2017-08-10T08:49:05.724Z,75.93
2017-08-10T08:50:16.255Z,76.51
2017-08-10T08:51:26.550Z,75.84
2017-08-10T08:52:36.217Z,75.1
2017-08-10T08:53:46.515Z,74.13
2017-08-10T08:54:56.482Z,76.35
2017-08-10T08:56:07.023Z,74.36
2017-08-10T08:57:17.652Z,73.88
2017-08-10T08:58:27.956Z,71.46
2017-08-10T08:59:38.234Z,72.08
2017-08-10T09:00:48.539Z,71.66
2017-08-10T09:01:59.109Z,72.14
2017-08-10T09:03:09.392Z,72.33
2017-08-10T09:04:19.687Z,71.94
2017-08-10T09:05:29.975Z,71.59
2017-08-10T09:06:40.266Z,71.59
2017-08-10T09:07:50.833Z,71.5
2017-08-10T09:09:01.107Z,69.11
2017-08-10T09:10:11.416Z,68.24
2017-08-10T09:11:21.726Z,68.47
2017-08-10T09:12:32.035Z,66.92
2017-08-10T09:13:42.632Z,66.53
2017-08-10T09:14:52.930Z,67.02
2017-08-10T09:16:03.222Z,68.02
2017-08-10T09:17:13.514Z,66.56
2017-08-10T09:18:23.502Z,68.02
2017-08-10T09:19:34.062Z,66.79
2017-08-10T09:20:44.041Z,66.2
2017-08-10T09:21:54.349Z,64.88
2017-08-10T09:23:04.011Z,64.78
2017-08-10T09:24:13.994Z,64.82
2017-08-10T09:25:24.537Z,64.92
2017-08-10T09:26:34.831Z,64.53
2017-08-10T09:27:45.144Z,62.91
2017-08-10T09:28:55.115Z,61.07
2017-08-10T09:30:05.419Z,60.19
2017-08-10T09:31:15.986Z,58.28
2017-08-10T09:32:25.963Z,58.28
2017-08-10T09:33:36.273Z,59.31
2017-08-10T09:34:46.567Z,58.34
2017-08-10T09:35:56.546Z,59.22
2017-08-10T09:37:07.101Z,60.58
2017-08-10T09:38:17.387Z,61.55
2017-08-10T09:39:27.699Z,60.87
2017-08-10T09:40:37.988Z,58.44
2017-08-10T09:41:48.288Z,58.93
2017-08-10T09:42:58.520Z,58.25
2017-08-10T09:44:08.823Z,59.97
2017-08-10T09:45:19.133Z,59
2017-08-10T09:46:29.432Z,58.25
2017-08-10T09:47:39.744Z,58.44
2017-08-10T09:48:50.028Z,58.08
2017-08-10T09:50:00.029Z,56.43
2017-08-10T09:51:10.009Z,55.98
2017-08-10T09:52:20.044Z,56.39
2017-08-10T09:53:30.328Z,55.64
2017-08-10T09:54:40.271Z,52.94
2017-08-10T09:55:50.568Z,52.09
2017-08-10T09:57:00.258Z,51.99
2017-08-10T09:58:10.228Z,51.75
2017-08-10T09:59:20.525Z,48.95
2017-08-10T10:00:31.098Z,48.95
2017-08-10T10:01:41.424Z,49.02
2017-08-10T10:02:51.756Z,49.22
2017-08-10T10:04:02.073Z,48.24
2017-08-10T10:05:12.060Z,47.07
2017-08-10T10:06:21.979Z,46.1
2017-08-10T10:07:32.275Z,47.27
2017-08-10T10:08:41.973Z,47.92
2017-08-10T10:09:52.260Z,48.9
2017-08-10T10:11:02.241Z,49.71
2017-08-10T10:12:12.839Z,48.85
2017-08-10T10:13:23.145Z,48.68
2017-08-10T10:14:33.439Z,46.17
2017-08-10T10:15:43.732Z,46.46
2017-08-10T10:16:54.029Z,45.58
2017-08-10T10:18:04.272Z,45.09
2017-08-10T10:19:14.260Z,46.83
2017-08-10T10:20:24.237Z,45
2017-08-10T10:21:34.239Z,44.73
2017-08-10T10:22:44.557Z,45.9
2017-08-10T10:23:54.787Z,43.28
2017-08-10T10:25:04.467Z,40
2017-08-10T10:26:14.764Z,39.8
2017-08-10T10:27:24.766Z,42.32
2017-08-10T10:28:34.763Z,41.86
2017-08-10T10:29:45.361Z,39.51
2017-08-10T10:30:55.666Z,39.14
2017-08-10T10:32:05.351Z,36.2
2017-08-10T10:33:15.665Z,31.62
2017-08-10T10:34:25.965Z,32.89
2017-08-10T10:35:36.517Z,34.64
2017-08-10T10:36:46.816Z,34.83
2017-08-10T10:37:57.113Z,32.6
2017-08-10T10:39:07.109Z,34.55
2017-08-10T10:40:17.402Z,33.87
2017-08-10T10:41:27.950Z,34.08
2017-08-10T10:42:37.945Z,35.35
2017-08-10T10:43:47.934Z,35.93
2017-08-10T10:44:58.238Z,35.11
2017-08-10T10:46:08.538Z,35.99
2017-08-10T10:47:18.787Z,35.69
2017-08-10T10:48:28.794Z,35.21
2017-08-10T10:49:39.085Z,35.79
2017-08-10T10:50:49.371Z,35.13
2017-08-10T10:51:59.668Z,35.13
2017-08-10T10:53:09.909Z,35.81
2017-08-10T10:54:20.203Z,34.84
2017-08-10T10:55:30.492Z,34.16
2017-08-10T10:56:40.790Z,36.04
2017-08-10T10:57:51.087Z,35.57
2017-08-10T10:59:01.018Z,35.17
2017-08-10T11:00:11.303Z,34.47
2017-08-10T11:01:20.979Z,35.24
2017-08-10T11:02:31.280Z,35.16
2017-08-10T11:03:40.955Z,33.69
2017-08-10T11:04:51.237Z,34.39
2017-08-10T11:06:01.756Z,35.96
2017-08-10T11:07:11.428Z,36.24
2017-08-10T11:08:21.092Z,36.72
2017-08-10T11:09:31.438Z,37.12
2017-08-10T11:10:41.696Z,35.94
2017-08-10T11:11:52.005Z,35.47
2017-08-10T11:13:02.320Z,31.96
2017-08-10T11:14:12.344Z,31.38
2017-08-10T11:15:22.317Z,32.86
2017-08-10T11:16:32.863Z,33.61
2017-08-10T11:17:42.576Z,34.49
2017-08-10T11:18:52.873Z,33.8
2017-08-10T11:20:03.172Z,33.22
2017-08-10T11:21:13.523Z,33.69
2017-08-10T11:22:23.508Z,34.47
2017-08-10T11:23:33.510Z,33.87
2017-08-10T11:24:43.527Z,35.04
2017-08-10T11:25:53.823Z,32.23
2017-08-10T11:27:04.129Z,30.96
2017-08-10T11:28:14.354Z,30.49
2017-08-10T11:29:24.676Z,29.05
2017-08-10T11:30:34.661Z,29.34
2017-08-10T11:31:44.654Z,30.71
2017-08-10T11:32:54.947Z,30.02
2017-08-10T11:34:05.517Z,31.2
2017-08-10T11:35:15.816Z,31.41
2017-08-10T11:36:26.148Z,30.53
2017-08-10T11:37:36.432Z,31.22
2017-08-10T11:38:46.744Z,29.57
2017-08-10T11:39:56.986Z,29.38
2017-08-10T11:41:07.295Z,29.76
2017-08-10T11:42:16.983Z,29.68
2017-08-10T11:43:27.303Z,28.2
2017-08-10T11:44:37.350Z,27.33
2017-08-10T11:45:48.101Z,27.82
2017-08-10T11:46:58.399Z,27.81
2017-08-10T11:48:08.735Z,27.62
2017-08-10T11:49:19.050Z,26.85
2017-08-10T11:50:28.721Z,25.59
2017-08-10T11:51:38.967Z,25.29
2017-08-10T11:52:49.266Z,25.59
2017-08-10T11:53:59.578Z,24.7
2017-08-10T11:55:09.878Z,25.21
2017-08-10T11:56:20.180Z,26.28
2017-08-10T11:57:30.467Z,27.16
2017-08-10T11:58:40.458Z,27.05
2017-08-10T11:59:50.423Z,27.05
2017-08-10T12:01:00.404Z,27.45
2017-08-10T12:02:10.699Z,28.23
2017-08-10T12:03:21.272Z,27.94
2017-08-10T12:04:31.582Z,26.17
2017-08-10T12:05:41.266Z,26.75
2017-08-10T12:06:51.570Z,26.56
2017-08-10T12:08:01.543Z,26.95
2017-08-10T12:09:11.791Z,27.02
2017-08-10T12:10:21.784Z,27.01
2017-08-10T12:11:32.069Z,27.78
2017-08-10T12:12:42.081Z,28.77
2017-08-10T12:13:52.376Z,28.75
2017-08-10T12:15:02.613Z,29.73
2017-08-10T12:16:12.283Z,30.02
2017-08-10T12:17:22.564Z,28.16
2017-08-10T12:18:32.871Z,28.67
2017-08-10T12:19:42.547Z,29.07
2017-08-10T12:20:52.841Z,29.55
2017-08-10T12:22:03.141Z,29.93
2017-08-10T12:23:13.441Z,27.49
2017-08-10T12:24:23.442Z,28.08
2017-08-10T12:25:33.756Z,29.25
2017-08-10T12:26:44.311Z,29.72
2017-08-10T12:27:54.309Z,28.93
2017-08-10T12:29:04.290Z,29.55
2017-08-10T12:30:13.967Z,30.24
2017-08-10T12:31:23.651Z,27.99
2017-08-10T12:32:34.229Z,27.42
2017-08-10T12:33:44.549Z,26.85
2017-08-10T12:34:54.855Z,27.36
2017-08-10T12:36:05.170Z,26.67
2017-08-10T12:37:15.493Z,26.95
2017-08-10T12:38:26.038Z,26.97
2017-08-10T12:39:35.410Z,26.37
2017-08-10T12:40:45.721Z,25.77
2017-08-10T12:41:56.010Z,26.46
2017-08-10T12:43:06.318Z,25.87
2017-08-10T12:44:16.562Z,25.1
2017-08-10T12:45:26.867Z,25.7
2017-08-10T12:46:37.163Z,25.5
2017-08-10T12:47:47.463Z,24.63
2017-08-10T12:48:57.759Z,25.43
2017-08-10T12:50:08.002Z,24.74
2017-08-10T12:51:18.299Z,24.13
2017-08-10T12:52:28.611Z,24.13
2017-08-10T12:53:38.617Z,23.94
2017-08-10T12:54:48.926Z,24.63
2017-08-10T12:55:59.193Z,25.71
2017-08-10T12:57:09.523Z,25.7
2017-08-10T12:58:19.849Z,26.56
2017-08-10T12:59:29.205Z,27.44
2017-08-10T13:00:39.510Z,27.74
2017-08-10T13:01:49.434Z,28.51
2017-08-10T13:02:59.749Z,27.61
2017-08-10T13:04:09.748Z,27.81
2017-08-10T13:05:19.729Z,28.2
2017-08-10T13:06:29.713Z,27.88
2017-08-10T13:07:39.955Z,27.29
2017-08-10T13:08:49.957Z,28.27
2017-08-10T13:10:00.256Z,28.75
2017-08-10T13:11:10.246Z,29.72
2017-08-10T13:12:20.564Z,30
2017-08-10T13:13:30.487Z,29.8
2017-08-10T13:14:40.782Z,29.59
2017-08-10T13:15:51.091Z,29.41
2017-08-10T13:17:01.096Z,29.9
2017-08-10T13:18:11.392Z,29.79
2017-08-10T13:19:22.002Z,29.88
2017-08-10T13:20:32.003Z,29.69
2017-08-10T13:21:42.311Z,30.68
2017-08-10T13:22:52.288Z,31.63
2017-08-10T13:24:02.576Z,30.74
2017-08-10T13:25:12.810Z,31.13
2017-08-10T13:26:22.781Z,31.44
2017-08-10T13:27:33.075Z,30.26
2017-08-10T13:28:43.372Z,30.46
2017-08-10T13:29:53.690Z,29.68
2017-08-10T13:31:03.936Z,30.18
2017-08-10T13:32:14.237Z,29.98
2017-08-10T13:33:24.228Z,28.82
2017-08-10T13:34:34.240Z,29.62
2017-08-10T13:35:44.218Z,28.74
2017-08-10T13:36:54.809Z,29.13
2017-08-10T13:38:04.802Z,28.16
2017-08-10T13:39:15.111Z,28.85
2017-08-10T13:40:25.096Z,28.57
2017-08-10T13:41:35.061Z,29.25
2017-08-10T13:42:45.616Z,29.25
2017-08-10T13:43:55.920Z,29.76
2017-08-10T13:45:06.219Z,28.37
2017-08-10T13:46:15.887Z,28.86
2017-08-10T13:47:25.892Z,29.25
2017-08-10T13:48:36.149Z,28.26
2017-08-10T13:49:46.451Z,28.08
2017-08-10T13:50:56.746Z,27.88
2017-08-10T13:52:06.727Z,27.78
2017-08-10T13:53:17.017Z,28.06
2017-08-10T13:54:27.260Z,27.57
2017-08-10T13:55:37.559Z,28.06
2017-08-10T13:56:47.855Z,29.72
2017-08-10T13:57:57.548Z,28.44
2017-08-10T13:59:07.870Z,28.85
2017-08-10T14:00:18.414Z,27.69
2017-08-10T14:01:28.080Z,28.08
2017-08-10T14:02:38.059Z,28.68
2017-08-10T14:03:48.353Z,30.02
2017-08-10T14:04:58.658Z,30.32
2017-08-10T14:06:09.212Z,30.02
2017-08-10T14:07:18.877Z,30.42
2017-08-10T14:08:29.176Z,29.44
2017-08-10T14:09:39.474Z,29.85
2017-08-10T14:10:49.796Z,28.29
2017-08-10T14:12:00.037Z,27.7
2017-08-10T14:13:10.335Z,27.71
2017-08-10T14:14:20.318Z,26.84
2017-08-10T14:15:30.590Z,27.33
2017-08-10T14:16:40.884Z,27.23
2017-08-10T14:17:51.436Z,27.43
2017-08-10T14:19:01.415Z,28.12
2017-08-10T14:20:11.729Z,28.09
2017-08-10T14:21:22.037Z,28.78
2017-08-10T14:22:32.010Z,28.58
2017-08-10T14:23:42.565Z,28.96
2017-08-10T14:24:52.891Z,28.47
2017-08-10T14:26:03.179Z,28.77
2017-08-10T14:27:12.857Z,29.13
2017-08-10T14:28:23.151Z,29.8
2017-08-10T14:29:33.678Z,29.88
2017-08-10T14:30:43.986Z,30.08
2017-08-10T14:31:54.283Z,31.04
2017-08-10T14:33:04.595Z,30.15
2017-08-10T14:34:14.900Z,30.55
2017-08-10T14:35:25.455Z,29.97
2017-08-10T14:36:35.432Z,29.77
2017-08-10T14:37:45.423Z,30.16
2017-08-10T14:38:55.725Z,29.97
2017-08-10T14:40:06.032Z,29.68
2017-08-10T14:41:16.637Z,30.77
2017-08-10T14:42:26.933Z,30.87
2017-08-10T14:43:37.235Z,31.55
2017-08-10T14:44:47.213Z,32.42
2017-08-10T14:45:57.506Z,32.4
2017-08-10T14:47:08.097Z,33.09
2017-08-10T14:48:17.774Z,33.67
2017-08-10T14:49:27.749Z,33.67
2017-08-10T14:50:37.739Z,33.87
2017-08-10T14:51:47.730Z,32.22
2017-08-10T14:52:58.017Z,32.22
2017-08-10T14:54:08.328Z,31.26
2017-08-10T14:55:18.621Z,32.23
2017-08-10T14:56:28.939Z,32.73
2017-08-10T14:57:38.617Z,32.82
2017-08-10T14:58:49.177Z,32.54
2017-08-10T14:59:59.480Z,33.41
2017-08-10T15:01:09.797Z,32.73
2017-08-10T15:02:19.783Z,32.73
2017-08-10T15:03:30.089Z,32.54
2017-08-10T15:04:40.004Z,32.64
2017-08-10T15:05:49.989Z,31.86
2017-08-10T15:06:59.661Z,31.57